Time;durP1;ratioP1;P1;durP2;ratioP2;P2;SDS_P1;SDS_P2;PMS_P1;PMS_P2;Temp;Humidity;BMP_temperature;BMP_pressure;BME280_temperature;BME280_humidity;BME280_pressure;Samples;Min_cycle;Max_cycle;Signal;HPM_P1;HPM_P2
2022/04/11 00:02:52;;;;;;;11.57;7.32;;;;;;;7.39;47.14;98372.41;8349381;28;20423;-70
2022/04/11 00:06:55;;;;;;;9.33;5.77;;;;;;;6.93;48.50;98363.22;8352206;28;20288;-71
2022/04/11 00:10:58;;;;;;;10.30;5.90;;;;;;;6.78;48.88;98371.28;8351871;28;20244;-71
2022/04/11 00:15:06;;;;;;;10.63;6.10;;;;;;;6.87;48.83;98372.78;8351997;28;20232;-70
2022/04/11 00:19:09;;;;;;;10.50;6.27;;;;;;;6.75;48.90;98368.78;8351688;28;20291;-70
2022/04/11 00:23:12;;;;;;;10.73;5.40;;;;;;;6.74;48.71;98367.06;8351868;28;20235;-70
2022/04/11 00:27:15;;;;;;;9.07;5.73;;;;;;;6.77;48.86;98362.69;8351635;28;20578;-71
2022/04/11 00:31:19;;;;;;;10.77;6.00;;;;;;;6.77;48.63;98357.56;8351038;28;20274;-70
2022/04/11 00:35:23;;;;;;;8.73;5.60;;;;;;;6.69;48.83;98358.63;8351083;28;20236;-70
2022/04/11 00:39:26;;;;;;;9.80;5.57;;;;;;;6.38;49.26;98356.72;8351079;28;20239;-70
2022/04/11 00:43:36;;;;;;;9.90;5.23;;;;;;;6.56;48.78;98350.31;8351162;28;20288;-71
2022/04/11 00:47:40;;;;;;;8.07;5.53;;;;;;;6.60;48.81;98349.38;8350774;28;20231;-70
2022/04/11 00:51:43;;;;;;;7.77;5.20;;;;;;;6.50;49.06;98347.88;8350556;28;20234;-70
2022/04/11 00:55:46;;;;;;;7.50;4.93;;;;;;;6.56;48.79;98347.75;8350555;28;20572;-69
2022/04/11 00:59:50;;;;;;;8.80;5.53;;;;;;;6.40;49.24;98344.66;8350524;28;20236;-70
2022/04/11 01:03:54;;;;;;;6.63;5.53;;;;;;;6.40;48.96;98340.38;8350627;28;20420;-70
2022/04/11 01:07:59;;;;;;;7.13;5.67;;;;;;;6.43;48.89;98339.44;8350137;28;20525;-70
2022/04/11 01:12:02;;;;;;;9.03;5.57;;;;;;;6.23;49.06;98334.75;8350166;28;20521;-70
2022/04/11 01:16:06;;;;;;;8.03;5.70;;;;;;;6.32;48.89;98339.69;8350159;28;20556;-70
2022/04/11 01:20:13;;;;;;;8.60;5.80;;;;;;;6.43;49.01;98342.84;8349457;28;20235;-70
2022/04/11 01:24:20;;;;;;;9.43;5.40;;;;;;;6.30;49.77;98341.41;8349769;28;20232;-70
2022/04/11 01:28:23;;;;;;;10.00;6.07;;;;;;;6.34;49.18;98339.63;8349686;28;20247;-70
2022/04/11 01:32:28;;;;;;;8.83;5.80;;;;;;;6.21;49.23;98331.34;8349548;28;20236;-70
2022/04/11 01:36:31;;;;;;;9.30;5.93;;;;;;;6.10;48.91;98334.13;8349542;28;20238;-70
2022/04/11 01:40:36;;;;;;;7.90;5.30;;;;;;;6.18;49.15;98334.81;8349432;28;20232;-70
2022/04/11 01:44:38;;;;;;;8.73;5.50;;;;;;;6.13;49.42;98330.66;8349752;28;20235;-70
2022/04/11 01:48:42;;;;;;;6.37;5.27;;;;;;;6.06;49.42;98337.66;8351042;28;20403;-70
2022/04/11 01:52:45;;;;;;;8.93;6.30;;;;;;;6.05;49.97;98329.09;8350753;28;20219;-70
2022/04/11 01:56:49;;;;;;;8.00;6.43;;;;;;;6.10;49.39;98326.41;8351008;28;20201;-70
2022/04/11 02:00:53;;;;;;;8.50;6.70;;;;;;;6.00;50.19;98319.78;8350721;28;20389;-69
2022/04/11 02:04:58;;;;;;;11.90;6.70;;;;;;;5.78;51.17;98321.88;8350851;28;20302;-70
2022/04/11 02:09:01;;;;;;;9.50;6.77;;;;;;;6.01;51.09;98324.03;8348697;28;20243;-70
2022/04/11 02:13:06;;;;;;;11.20;6.93;;;;;;;5.92;50.76;98327.63;8348323;28;20535;-69
2022/04/11 02:17:09;;;;;;;9.00;6.53;;;;;;;6.02;50.60;98330.88;8347937;28;20228;-69
2022/04/11 02:21:12;;;;;;;9.17;5.97;;;;;;;6.06;50.70;98335.91;8348370;28;20550;-69
2022/04/11 02:25:16;;;;;;;11.13;6.37;;;;;;;5.99;50.71;98320.66;8347916;28;20228;-70
2022/04/11 02:29:20;;;;;;;15.83;6.50;;;;;;;5.84;51.41;98326.91;8347797;28;20235;-70
2022/04/11 02:33:23;;;;;;;8.87;6.00;;;;;;;5.97;50.78;98325.81;8347716;28;20232;-70
2022/04/11 02:37:26;;;;;;;9.00;5.37;;;;;;;5.81;51.10;98327.81;8347691;28;20235;-69
2022/04/11 02:41:29;;;;;;;9.43;6.33;;;;;;;5.86;51.37;98325.16;8347792;28;20531;-69
2022/04/11 02:45:33;;;;;;;7.63;5.63;;;;;;;5.86;51.01;98327.72;8347615;28;20228;-70
2022/04/11 02:49:40;;;;;;;10.43;5.67;;;;;;;5.84;51.08;98337.19;8347445;28;20232;-69
2022/04/11 02:53:42;;;;;;;11.03;5.87;;;;;;;5.73;51.12;98331.41;8347253;28;20537;-70
2022/04/11 02:57:45;;;;;;;8.20;6.00;;;;;;;5.65;50.98;98336.69;8347037;28;20234;-70
2022/04/11 03:01:53;;;;;;;8.27;5.97;;;;;;;5.52;51.60;98333.53;8347240;28;20232;-69
2022/04/11 03:05:56;;;;;;;7.50;5.20;;;;;;;5.65;51.26;98328.97;8346935;28;20228;-69
2022/04/11 03:09:59;;;;;;;9.23;5.60;;;;;;;5.49;51.16;98331.84;8346641;28;20236;-69
2022/04/11 03:14:02;;;;;;;10.70;6.13;;;;;;;5.49;51.70;98329.25;8346807;28;20452;-69
2022/04/11 03:18:07;;;;;;;8.23;6.00;;;;;;;5.40;51.71;98323.44;8346662;28;20236;-69
2022/04/11 03:22:11;;;;;;;8.70;5.53;;;;;;;5.64;51.43;98315.28;8346336;28;20258;-69
2022/04/11 03:26:13;;;;;;;8.23;5.37;;;;;;;5.64;50.93;98317.88;8346587;28;20239;-69
2022/04/11 03:30:16;;;;;;;10.57;5.57;;;;;;;5.61;50.91;98311.94;8346517;28;20464;-70
2022/04/11 03:34:21;;;;;;;7.73;5.43;;;;;;;5.74;50.52;98300.53;8346695;28;20238;-69
2022/04/11 03:38:24;;;;;;;8.57;5.53;;;;;;;5.66;50.84;98294.72;8346545;28;20437;-69
2022/04/11 03:42:27;;;;;;;10.53;6.00;;;;;;;5.17;52.70;98298.16;8346389;28;20242;-70
2022/04/11 03:46:30;;;;;;;9.03;5.67;;;;;;;5.32;52.20;98295.34;8346449;28;20238;-69
2022/04/11 03:50:34;;;;;;;9.93;5.70;;;;;;;5.07;52.92;98290.63;8346285;28;20239;-69
2022/04/11 03:54:37;;;;;;;10.03;5.83;;;;;;;5.31;52.20;98292.78;8346206;28;20235;-69
2022/04/11 03:58:40;;;;;;;8.77;5.87;;;;;;;5.19;52.22;98289.56;8346147;28;20266;-70
2022/04/11 04:02:43;;;;;;;10.90;6.07;;;;;;;4.88;53.26;98284.94;8346393;28;20232;-69
2022/04/11 04:06:47;;;;;;;9.00;5.90;;;;;;;5.28;52.14;98276.56;8342677;28;20305;-70
2022/04/11 04:10:51;;;;;;;7.67;5.33;;;;;;;5.28;51.77;98280.84;8351462;28;20247;-69
2022/04/11 04:14:53;;;;;;;8.40;5.40;;;;;;;5.30;52.06;98281.69;8351605;28;20527;-70
2022/04/11 04:18:56;;;;;;;8.10;5.07;;;;;;;5.09;52.90;98280.34;8351431;28;20231;-70
2022/04/11 04:23:01;;;;;;;8.93;5.70;;;;;;;5.22;52.35;98273.28;8351593;28;20424;-70
2022/04/11 04:27:04;;;;;;;8.37;5.60;;;;;;;4.85;53.89;98276.44;8351117;28;20228;-70
2022/04/11 04:31:07;;;;;;;6.60;5.43;;;;;;;5.19;52.48;98274.16;8350813;28;20428;-70
2022/04/11 04:35:12;;;;;;;10.40;6.00;;;;;;;4.99;53.06;98266.81;8347801;28;20230;-71
2022/04/11 04:39:16;;;;;;;7.30;5.63;;;;;;;5.14;52.98;98281.13;8350366;28;20251;-69
2022/04/11 04:43:19;;;;;;;7.80;5.83;;;;;;;4.93;53.18;98274.63;8350613;28;20244;-69
2022/04/11 04:47:22;;;;;;;8.33;5.53;;;;;;;5.22;52.28;98279.25;8350460;28;20235;-69
2022/04/11 04:51:25;;;;;;;9.63;5.23;;;;;;;5.38;52.29;98266.97;8350690;28;20239;-70
2022/04/11 04:55:31;;;;;;;10.80;6.47;;;;;;;5.35;51.83;98261.91;8350360;28;20255;-70
2022/04/11 04:59:34;;;;;;;9.27;5.83;;;;;;;5.46;51.88;98259.09;8350732;28;20428;-69
2022/04/11 05:03:38;;;;;;;8.27;5.27;;;;;;;5.34;51.94;98249.91;8350552;28;20232;-70
2022/04/11 05:07:41;;;;;;;6.87;5.10;;;;;;;5.28;52.34;98256.03;8350278;28;20239;-71
2022/04/11 05:11:52;;;;;;;7.70;6.17;;;;;;;5.41;52.30;98254.06;8350202;28;20243;-70
2022/04/11 05:15:57;;;;;;;10.27;5.90;;;;;;;5.65;51.69;98257.03;8350165;28;20299;-70
2022/04/11 05:20:00;;;;;;;8.80;6.40;;;;;;;5.71;51.86;98246.63;8349912;28;20232;-70
2022/04/11 05:24:03;;;;;;;11.93;8.43;;;;;;;5.63;51.95;98245.94;8349905;28;20247;-69
2022/04/11 05:28:08;;;;;;;11.63;8.77;;;;;;;5.65;51.65;98250.19;8349608;28;20232;-69
2022/04/11 05:32:17;;;;;;;11.93;10.73;;;;;;;5.79;51.73;98249.91;8348969;28;20503;-70
2022/04/11 05:36:20;;;;;;;11.43;7.70;;;;;;;5.91;51.59;98248.78;8349541;28;20300;-69
2022/04/11 05:40:23;;;;;;;12.33;6.87;;;;;;;5.75;51.55;98248.28;8349384;28;20240;-70
2022/04/11 05:44:27;;;;;;;12.40;6.90;;;;;;;6.22;50.78;98259.28;8349423;28;20232;-69
2022/04/11 05:48:32;;;;;;;9.03;6.57;;;;;;;5.93;52.01;98257.31;8349151;28;20235;-70
2022/04/11 05:52:35;;;;;;;8.80;5.77;;;;;;;6.51;50.27;98262.09;8348931;28;20330;-70
2022/04/11 05:56:38;;;;;;;9.77;5.90;;;;;;;6.07;50.89;98264.75;8348833;28;20236;-69
2022/04/11 06:00:42;;;;;;;9.63;5.73;;;;;;;6.43;49.83;98265.66;8348609;28;20239;-70
2022/04/11 06:04:45;;;;;;;10.77;6.50;;;;;;;6.15;50.48;98274.88;8348380;28;20228;-70
2022/04/11 06:08:48;;;;;;;8.47;6.33;;;;;;;6.67;49.55;98275.47;8348098;28;20239;-70
2022/04/11 06:12:51;;;;;;;9.83;5.60;;;;;;;7.29;48.42;98280.78;8348120;28;20232;-69
2022/04/11 06:16:56;;;;;;;8.13;5.50;;;;;;;7.27;48.56;98287.69;8348069;28;20232;-70
2022/04/11 06:20:59;;;;;;;9.63;6.63;;;;;;;7.93;47.31;98290.22;8348025;28;20232;-70
2022/04/11 06:25:03;;;;;;;9.87;6.20;;;;;;;7.57;48.33;98291.19;8347904;28;20258;-70
2022/04/11 06:29:06;;;;;;;9.67;6.23;;;;;;;7.99;47.41;98298.59;8347843;28;20466;-70
2022/04/11 06:33:10;;;;;;;11.60;6.50;;;;;;;7.41;48.53;98298.47;8346741;28;20236;-70
2022/04/11 06:37:13;;;;;;;9.00;7.20;;;;;;;7.38;48.68;98303.69;8347787;28;20845;-70
2022/04/11 06:41:16;;;;;;;11.03;6.90;;;;;;;7.77;47.67;98303.53;8347094;28;20232;-71
2022/04/11 06:45:19;;;;;;;9.47;6.60;;;;;;;7.91;48.11;98310.88;8346864;28;20224;-70
2022/04/11 06:49:24;;;;;;;10.33;6.47;;;;;;;7.67;48.86;98311.56;8346735;28;20232;-70
2022/04/11 06:53:32;;;;;;;10.03;6.63;;;;;;;8.22;47.71;98313.44;8344701;28;20236;-71
2022/04/11 06:57:35;;;;;;;8.50;6.40;;;;;;;8.69;46.66;98312.06;8346550;28;20227;-70
2022/04/11 07:01:38;;;;;;;11.37;7.17;;;;;;;7.98;47.77;98304.66;8346737;28;20236;-70
2022/04/11 07:05:43;;;;;;;9.70;6.73;;;;;;;9.22;45.51;98312.09;8346730;28;20293;-70
2022/04/11 07:09:46;;;;;;;10.63;6.40;;;;;;;8.97;45.93;98304.31;8343696;28;20228;-70
2022/04/11 07:13:48;;;;;;;9.97;6.97;;;;;;;9.81;44.52;98307.50;8346929;28;20235;-71
2022/04/11 07:17:52;;;;;;;10.73;6.47;;;;;;;10.25;43.76;98298.09;8347294;28;20231;-70
2022/04/11 07:21:56;;;;;;;11.87;7.60;;;;;;;9.86;44.79;98303.84;8347014;28;20239;-70
2022/04/11 07:25:59;;;;;;;12.80;7.50;;;;;;;10.83;43.03;98297.59;8346131;28;20224;-70
2022/04/11 07:30:04;;;;;;;11.80;7.60;;;;;;;10.75;43.16;98304.81;8345457;28;20232;-70
2022/04/11 07:34:07;;;;;;;14.60;9.03;;;;;;;11.22;41.82;98302.06;8345489;28;20641;-70
2022/04/11 07:38:12;;;;;;;13.97;8.13;;;;;;;11.57;41.21;98296.28;8345150;28;20527;-70
2022/04/11 07:42:21;;;;;;;13.20;7.77;;;;;;;12.07;40.70;98288.91;8346130;28;20551;-70
2022/04/11 07:46:24;;;;;;;13.33;8.87;;;;;;;12.23;39.34;98294.25;8351265;28;20416;-71
2022/04/11 07:50:28;;;;;;;10.93;7.67;;;;;;;11.97;40.10;98290.22;8351119;28;20224;-71
2022/04/11 07:54:33;;;;;;;10.57;7.67;;;;;;;12.85;38.93;98294.81;8350720;28;20596;-71
2022/04/11 07:58:35;;;;;;;12.23;7.10;;;;;;;12.39;39.06;98296.13;8350633;28;20402;-71
2022/04/11 08:02:38;;;;;;;10.50;7.13;;;;;;;13.19;37.16;98289.69;8348481;28;20232;-71
2022/04/11 08:06:41;;;;;;;9.43;5.97;;;;;;;13.54;36.88;98289.72;8351335;28;20246;-71
2022/04/11 08:10:46;;;;;;;10.50;6.20;;;;;;;13.88;36.42;98284.44;8351114;28;20239;-71
2022/04/11 08:14:50;;;;;;;11.13;6.60;;;;;;;12.69;36.94;98283.44;8351225;28;20224;-70
2022/04/11 08:18:53;;;;;;;11.63;6.03;;;;;;;12.95;37.61;98277.00;8351268;28;20235;-71
2022/04/11 08:22:56;;;;;;;8.77;5.93;;;;;;;12.71;38.50;98271.22;8350848;28;20543;-71
2022/04/11 08:27:01;;;;;;;8.97;6.13;;;;;;;12.86;38.73;98265.28;8350577;28;20291;-71
2022/04/11 08:31:04;;;;;;;10.77;6.13;;;;;;;12.73;37.61;98263.34;8350754;28;20530;-71
2022/04/11 08:35:08;;;;;;;11.20;5.43;;;;;;;13.36;36.86;98268.06;8351345;28;20504;-71
2022/04/11 08:39:11;;;;;;;12.53;6.53;;;;;;;13.51;37.26;98256.88;8350974;28;20235;-69
2022/04/11 08:43:17;;;;;;;8.13;6.20;;;;;;;13.48;37.10;98250.06;8350161;28;20422;-69
2022/04/11 08:47:20;;;;;;;10.30;6.60;;;;;;;13.10;37.22;98260.63;8354072;28;20417;-68
2022/04/11 08:51:23;;;;;;;8.60;5.87;;;;;;;13.78;37.28;98245.94;8350788;28;20236;-57
2022/04/11 08:55:26;;;;;;;9.97;6.53;;;;;;;13.57;35.85;98245.31;8349984;28;20240;-57
2022/04/11 08:59:36;;;;;;;11.00;6.00;;;;;;;14.15;36.13;98242.22;8350669;28;20238;-58
2022/04/11 09:03:39;;;;;;;8.43;5.80;;;;;;;15.55;32.88;98247.28;8350455;28;20235;-57
2022/04/11 09:07:46;;;;;;;9.30;6.20;;;;;;;14.93;33.49;98250.06;8350289;28;20236;-59
2022/04/11 09:11:51;;;;;;;10.43;5.50;;;;;;;14.97;33.35;98254.16;8349914;28;20232;-58
2022/04/11 09:15:56;;;;;;;10.87;5.57;;;;;;;15.63;31.10;98263.34;8349965;28;20417;-58
2022/04/11 09:20:07;;;;;;;9.80;6.15;;;;;;;15.14;31.59;98250.59;8348137;28;20449;-58
2022/04/11 09:24:19;;;;;;;10.73;5.53;;;;;;;15.10;31.39;98243.88;8349010;28;20474;-59
2022/04/11 09:28:22;;;;;;;7.40;4.90;;;;;;;16.23;29.94;98246.59;8349107;28;20423;-59
2022/04/11 09:32:26;;;;;;;7.23;4.97;;;;;;;16.41;29.54;98235.91;8346160;28;20228;-59
2022/04/11 09:36:45;;;;;;;8.20;4.77;;;;;;;15.86;29.06;98232.41;8348562;28;20255;-59
2022/04/11 09:41:02;;;;;;;7.77;5.03;;;;;;;15.90;29.69;98240.91;8348358;28;20542;-59
2022/04/11 09:45:06;;;;;;;8.37;4.67;;;;;;;16.63;28.69;98234.56;8345833;28;20232;-59
2022/04/11 09:49:28;;;;;;;9.43;5.20;;;;;;;17.03;28.26;98227.56;8345372;28;20224;-59
2022/04/11 09:53:32;;;;;;;7.73;4.60;;;;;;;17.14;29.32;98213.78;8348575;28;20228;-59
2022/04/11 09:57:35;;;;;;;8.50;4.20;;;;;;;17.03;27.67;98226.75;8348740;28;20228;-59
2022/04/11 10:01:38;;;;;;;6.23;4.30;;;;;;;17.31;26.96;98204.78;8348027;28;20270;-58
2022/04/11 10:05:43;;;;;;;8.67;4.00;;;;;;;16.52;27.69;98209.94;8346814;28;20228;-59
2022/04/11 10:09:47;;;;;;;6.33;3.87;;;;;;;17.02;28.09;98204.97;8348315;28;20692;-60
2022/04/11 10:13:50;;;;;;;6.10;3.30;;;;;;;16.92;26.50;98194.25;8345609;28;20232;-59
2022/04/11 10:17:56;;;;;;;7.23;3.20;;;;;;;17.17;25.93;98197.84;8346476;28;20231;-59
2022/04/11 10:22:03;;;;;;;5.20;3.27;;;;;;;16.57;26.62;98191.34;8348173;28;20238;-59
2022/04/11 10:26:14;;;;;;;5.60;3.00;;;;;;;17.14;25.92;98182.38;8348041;28;20240;-59
2022/04/11 10:30:28;;;;;;;3.93;2.70;;;;;;;17.21;26.34;98178.41;8347664;28;20231;-59
2022/04/11 10:34:45;;;;;;;6.10;2.87;;;;;;;17.77;26.84;98168.38;8347861;28;20236;-59
2022/04/11 10:39:26;;;;;;;6.43;2.77;;;;;;;15.29;26.44;98167.09;8347963;28;20239;-59
2022/04/11 10:43:29;;;;;;;4.23;2.80;;;;;;;15.69;26.31;98159.44;8346787;28;20242;-60
2022/04/11 10:47:39;;;;;;;4.03;2.70;;;;;;;15.99;26.23;98149.75;8347338;28;20227;-59
2022/04/11 10:51:45;;;;;;;5.73;2.77;;;;;;;16.08;26.12;98144.84;8346800;28;20250;-60
2022/04/11 10:55:57;;;;;;;7.60;3.23;;;;;;;16.49;25.78;98147.41;8346852;28;20243;-59
2022/04/11 11:00:08;;;;;;;5.90;3.00;;;;;;;16.52;25.35;98139.34;8347012;28;20262;-59
2022/04/11 11:04:20;;;;;;;3.67;2.23;;;;;;;16.85;24.87;98132.00;8345451;28;20235;-60
2022/04/11 11:08:33;;;;;;;6.43;2.27;;;;;;;17.33;24.36;98132.22;8344254;28;20228;-61
2022/04/11 11:12:38;;;;;;;5.87;2.70;;;;;;;16.57;25.36;98124.19;8346654;28;20311;-59
2022/04/11 11:16:59;;;;;;;3.90;2.40;;;;;;;16.71;24.41;98128.50;8347303;28;20230;-59
2022/04/11 11:21:02;;;;;;;5.17;2.30;;;;;;;17.32;24.17;98125.31;8350635;28;20228;-59
2022/04/11 11:25:17;;;;;;;4.20;2.20;;;;;;;18.37;23.01;98129.19;8350285;28;20580;-59
2022/04/11 11:29:22;;;;;;;7.27;2.70;;;;;;;16.91;23.40;98123.78;8352323;28;20223;-59
2022/04/11 11:33:27;;;;;;;7.10;2.70;;;;;;;17.23;24.26;98129.41;8352075;28;20472;-59
2022/04/11 11:37:30;;;;;;;4.83;2.83;;;;;;;17.22;24.34;98106.78;8351472;28;20232;-59
2022/04/11 11:41:33;;;;;;;5.70;2.30;;;;;;;17.22;24.52;98098.94;8352343;28;20254;-59
2022/04/11 11:45:40;;;;;;;4.13;2.43;;;;;;;17.23;24.93;98099.78;8352066;28;20228;-60
2022/04/11 11:49:45;;;;;;;3.40;2.40;;;;;;;17.26;24.79;98092.53;8351372;28;20227;-59
2022/04/11 11:53:51;;;;;;;4.33;2.83;;;;;;;18.08;23.24;98087.59;8351358;28;20228;-59
2022/04/11 11:58:03;;;;;;;6.17;2.63;;;;;;;17.25;23.38;98077.81;8349386;28;20445;-62
2022/04/11 12:06:28;;;;;;;5.43;2.80;;;;;;;16.81;24.35;98073.81;8352166;28;20238;-60
2022/04/11 12:10:32;;;;;;;4.57;2.30;;;;;;;18.23;23.28;98064.69;8352123;28;20247;-59
2022/04/11 12:14:59;;;;;;;4.07;2.10;;;;;;;18.87;24.21;98058.19;8351754;28;20408;-60
2022/04/11 12:19:05;;;;;;;5.40;2.50;;;;;;;17.28;24.51;98061.88;8351972;28;20232;-60
2022/04/11 12:23:10;;;;;;;4.00;2.60;;;;;;;17.87;24.17;98058.56;8351612;28;20244;-60
2022/04/11 12:27:23;;;;;;;4.70;2.30;;;;;;;17.45;22.34;98050.22;8350514;28;20543;-61
2022/04/11 12:31:26;;;;;;;4.73;2.43;;;;;;;18.09;22.33;98036.06;8350745;28;20239;-60
2022/04/11 12:35:31;;;;;;;3.47;2.10;;;;;;;18.54;21.90;98039.66;8351100;28;20243;-60
2022/04/11 12:39:50;;;;;;;5.10;2.57;;;;;;;18.32;22.12;98057.94;8351242;28;20562;-60
2022/04/11 12:44:08;;;;;;;3.67;2.33;;;;;;;18.33;22.27;98044.72;8351026;28;20293;-60
2022/04/11 12:48:11;;;;;;;4.17;2.20;;;;;;;19.02;22.43;98036.03;8350586;28;20553;-60
2022/04/11 12:52:16;;;;;;;4.43;2.93;;;;;;;18.27;22.91;98031.22;8350765;28;20238;-60
2022/04/11 12:56:20;;;;;;;3.60;2.20;;;;;;;19.28;23.66;98022.63;8350598;28;20247;-59
2022/04/11 13:00:24;;;;;;;4.80;2.60;;;;;;;18.37;23.42;98013.84;8350388;28;20339;-59
2022/04/11 13:04:28;;;;;;;4.77;2.40;;;;;;;18.94;22.13;98026.13;8350205;28;20532;-59
2022/04/11 13:08:33;;;;;;;2.90;2.20;;;;;;;17.68;22.69;98014.50;8350308;28;20236;-60
2022/04/11 13:12:36;;;;;;;3.03;2.17;;;;;;;18.39;23.16;98011.97;8350122;28;20236;-60
2022/04/11 13:21:00;;;;;;;4.20;2.77;;;;;;;18.26;22.59;98000.69;8350168;28;20228;-60
2022/04/11 13:25:06;;;;;;;6.83;2.63;;;;;;;18.88;21.72;97995.09;8350034;28;20236;-59
2022/04/11 13:29:09;;;;;;;4.70;2.90;;;;;;;18.70;21.44;97986.84;8349432;28;20239;-61
2022/04/11 13:33:12;;;;;;;6.40;2.40;;;;;;;18.69;21.75;97972.03;8349484;28;20235;-59
2022/04/11 13:37:16;;;;;;;3.53;2.43;;;;;;;18.33;22.43;97959.97;8349674;28;20366;-59
2022/04/11 13:41:34;;;;;;;7.60;3.00;;;;;;;17.95;22.75;97968.94;8349539;28;20228;-59
2022/04/11 13:45:37;;;;;;;4.83;2.57;;;;;;;18.14;22.53;97960.53;8349028;28;20557;-60
2022/04/11 13:49:42;;;;;;;5.17;2.90;;;;;;;18.43;23.14;97958.34;8348813;28;20232;-60
2022/04/11 13:53:45;;;;;;;6.10;2.40;;;;;;;19.08;23.22;97942.84;8348684;28;20278;-59
2022/04/11 13:57:49;;;;;;;5.27;2.97;;;;;;;18.13;22.93;97937.91;8348589;28;20227;-60
2022/04/11 14:01:53;;;;;;;4.63;2.83;;;;;;;18.03;23.51;97935.16;8348248;28;20231;-59
2022/04/11 14:05:56;;;;;;;4.37;2.40;;;;;;;17.84;23.40;97932.19;8348382;28;20239;-60
2022/04/11 14:09:59;;;;;;;4.90;2.60;;;;;;;18.14;22.87;97932.56;8348214;28;20232;-60
2022/04/11 14:14:04;;;;;;;4.00;2.53;;;;;;;18.05;23.27;97924.53;8347978;28;20240;-59
2022/04/11 14:18:07;;;;;;;5.87;2.80;;;;;;;17.79;22.89;97920.28;8348055;28;20232;-59
2022/04/11 14:22:10;;;;;;;4.07;2.50;;;;;;;17.89;23.17;97914.38;8347452;28;20483;-60
2022/04/11 14:26:13;;;;;;;4.90;2.40;;;;;;;18.42;23.60;97909.47;8347925;28;20563;-60
2022/04/11 14:30:17;;;;;;;3.53;2.20;;;;;;;18.42;23.06;97906.00;8328365;28;20235;-59
2022/04/11 14:34:20;;;;;;;5.17;2.40;;;;;;;18.49;23.27;97902.78;8315054;28;20555;-59
2022/04/11 14:38:24;;;;;;;3.70;2.43;;;;;;;17.10;23.92;97891.31;8347215;28;20235;-60
2022/04/11 14:42:27;;;;;;;3.70;2.40;;;;;;;16.99;23.29;97889.47;8347449;28;20294;-60
2022/04/11 14:46:32;;;;;;;5.07;3.07;;;;;;;17.10;23.94;97900.97;8347224;28;20400;-60
2022/04/11 14:50:36;;;;;;;4.60;2.60;;;;;;;17.43;23.92;97891.59;8346808;28;20224;-60
2022/04/11 14:54:39;;;;;;;5.50;2.40;;;;;;;17.74;23.80;97887.53;8347030;28;20236;-60
2022/04/11 14:58:42;;;;;;;4.60;2.10;;;;;;;18.19;23.89;97892.06;8347291;28;20251;-60
2022/04/11 15:02:48;;;;;;;4.77;2.63;;;;;;;17.61;23.97;97884.16;8347272;28;20228;-59
2022/04/11 15:06:51;;;;;;;4.73;2.77;;;;;;;17.71;24.05;97872.06;8346969;28;20231;-60
2022/04/11 15:10:55;;;;;;;6.20;3.87;;;;;;;17.23;24.99;97867.72;8347200;28;20239;-60
2022/04/11 15:15:04;;;;;;;4.40;2.43;;;;;;;16.96;25.42;97863.53;8346982;28;20563;-60
2022/04/11 15:19:09;;;;;;;4.43;2.73;;;;;;;16.89;24.22;97861.47;8346866;28;20240;-60
2022/04/11 15:23:11;;;;;;;3.13;2.37;;;;;;;17.10;24.99;97859.09;8346371;28;20232;-59
2022/04/11 15:27:14;;;;;;;3.57;2.17;;;;;;;16.65;25.51;97854.41;8346353;28;20232;-59
2022/04/11 15:31:18;;;;;;;3.53;2.37;;;;;;;17.28;24.71;97859.53;8346293;28;20243;-60
2022/04/11 15:35:23;;;;;;;4.47;2.30;;;;;;;16.94;25.40;97848.88;8346426;28;20434;-59
2022/04/11 15:39:25;;;;;;;5.10;2.30;;;;;;;17.05;25.02;97841.09;8346447;28;20242;-60
2022/04/11 15:43:30;;;;;;;4.53;2.43;;;;;;;17.14;25.33;97837.00;8346377;28;20251;-71
2022/04/11 15:47:33;;;;;;;3.63;2.40;;;;;;;16.97;25.93;97835.59;8346201;28;20232;-71
2022/04/11 15:51:37;;;;;;;3.73;2.70;;;;;;;17.19;25.70;97832.22;8346262;28;20233;-71
2022/04/11 15:55:40;;;;;;;6.10;2.20;;;;;;;17.11;25.82;97824.94;8345710;28;20231;-70
2022/04/11 15:59:45;;;;;;;3.50;2.30;;;;;;;17.08;25.68;97834.84;8345681;28;20239;-70
2022/04/11 16:03:48;;;;;;;4.17;2.40;;;;;;;16.69;26.01;97826.25;8348081;28;20535;-72
2022/04/11 16:07:52;;;;;;;4.27;2.30;;;;;;;16.72;25.65;97829.50;8352117;28;20232;-73
2022/04/11 16:11:56;;;;;;;4.40;2.50;;;;;;;16.81;25.72;97828.84;8352100;28;20250;-72
2022/04/11 16:15:59;;;;;;;3.50;2.23;;;;;;;16.56;25.87;97821.06;8351852;28;20232;-72
2022/04/11 16:20:03;;;;;;;4.40;2.40;;;;;;;16.35;26.70;97824.22;8351145;28;20224;-72
2022/04/11 16:24:09;;;;;;;4.37;2.60;;;;;;;16.27;27.15;97821.34;8351607;28;20444;-72
2022/04/11 16:28:11;;;;;;;4.67;2.60;;;;;;;16.29;26.95;97818.63;8350897;28;20430;-72
2022/04/11 16:32:17;;;;;;;5.27;2.90;;;;;;;15.59;27.61;97817.25;8351398;28;20232;-72
2022/04/11 16:36:20;;;;;;;3.73;2.43;;;;;;;16.14;27.30;97815.28;8351359;28;20297;-72
2022/04/11 16:40:28;;;;;;;3.90;2.30;;;;;;;15.91;27.60;97815.09;8350897;28;20227;-70
2022/04/11 16:44:31;;;;;;;7.37;2.43;;;;;;;15.93;28.04;97810.59;8351037;28;20406;-71
2022/04/11 16:48:39;;;;;;;6.37;3.30;;;;;;;15.90;27.88;97810.00;8351092;28;20395;-71
2022/04/11 16:52:42;;;;;;;6.63;2.27;;;;;;;15.69;28.14;97812.25;8350816;28;20561;-72
2022/04/11 16:56:46;;;;;;;7.47;2.43;;;;;;;15.53;28.08;97815.88;8350822;28;20254;-71
2022/04/11 17:00:49;;;;;;;3.83;2.77;;;;;;;15.21;28.86;97808.44;8350160;28;20232;-71
2022/04/11 17:04:57;;;;;;;6.20;2.72;;;;;;;15.85;33.81;97822.53;8348139;28;20873;-69
2022/04/11 17:09:00;;;;;;;7.00;2.50;;;;;;;15.71;28.63;97813.00;8371882;28;20235;-74
2022/04/11 17:13:05;;;;;;;4.53;2.80;;;;;;;15.54;28.56;97814.13;8383147;28;20239;-75
2022/04/11 17:21:29;;;;;;;7.00;2.60;;;;;;;15.26;29.20;97808.13;8382580;28;20234;-75
2022/04/11 17:25:32;;;;;;;3.93;2.40;;;;;;;15.35;29.37;97811.91;8382787;28;20409;-75
2022/04/11 17:29:37;;;;;;;5.67;2.90;;;;;;;15.27;29.74;97816.78;8377890;28;20531;-75
2022/04/11 17:33:41;;;;;;;6.20;2.53;;;;;;;15.14;30.35;97820.19;8349569;28;20421;-74
2022/04/11 17:37:44;;;;;;;5.47;2.63;;;;;;;15.23;30.58;97827.44;8349215;28;20247;-74
2022/04/11 17:41:47;;;;;;;6.93;3.07;;;;;;;15.18;30.96;97823.44;8349373;28;20247;-74
2022/04/11 17:45:54;;;;;;;5.97;2.93;;;;;;;15.32;31.60;97833.81;8348540;28;20228;-74
2022/04/11 17:49:57;;;;;;;4.00;2.83;;;;;;;14.99;30.92;97837.66;8348940;28;20298;-75
2022/04/11 17:54:01;;;;;;;5.53;3.47;;;;;;;14.78;31.67;97849.47;8348759;28;20282;-76
2022/04/11 17:58:04;;;;;;;4.40;3.17;;;;;;;14.60;31.99;97846.25;8348890;28;20239;-75
2022/04/11 18:02:08;;;;;;;7.50;3.30;;;;;;;14.53;32.30;97844.94;8348806;28;20236;-75
2022/04/11 18:06:14;;;;;;;9.07;4.50;;;;;;;14.41;32.81;97851.72;8348242;28;20405;-74
2022/04/11 18:10:17;;;;;;;7.73;5.40;;;;;;;14.41;33.17;97839.56;8348339;28;20243;-73
2022/04/11 18:14:20;;;;;;;5.47;3.73;;;;;;;14.26;33.22;97845.72;8348391;28;20246;-72
2022/04/11 18:18:26;;;;;;;6.43;4.10;;;;;;;14.08;33.32;97845.06;8348233;28;20232;-72
2022/04/11 18:22:29;;;;;;;10.30;3.90;;;;;;;14.14;33.23;97841.25;8346970;28;20306;-72
2022/04/11 18:26:32;;;;;;;6.33;4.50;;;;;;;14.03;33.50;97850.56;8347142;28;20242;-72
2022/04/11 18:34:58;;;;;;;7.40;4.93;;;;;;;13.99;33.59;97866.44;8342917;28;20343;-71
2022/04/11 18:39:07;;;;;;;10.17;4.93;;;;;;;13.97;33.60;97861.31;8329868;28;20239;-74
2022/04/11 18:43:10;;;;;;;8.07;5.07;;;;;;;13.75;34.17;97856.56;8346606;28;20236;-72
2022/04/11 18:47:16;;;;;;;8.73;5.83;;;;;;;13.85;33.94;97864.66;8346534;28;20287;-73
2022/04/11 18:51:23;;;;;;;7.97;5.77;;;;;;;13.77;34.19;97867.72;8344123;28;20227;-73
2022/04/11 18:55:26;;;;;;;9.30;6.70;;;;;;;13.94;34.00;97864.13;8346260;28;20243;-72
2022/04/11 18:59:29;;;;;;;10.10;7.03;;;;;;;13.84;34.12;97861.22;8344598;28;20235;-72
2022/04/11 19:03:32;;;;;;;11.60;6.80;;;;;;;13.67;34.19;97864.00;8357207;28;20289;-72
2022/04/11 19:07:38;;;;;;;10.57;6.23;;;;;;;13.56;34.61;97864.59;8337819;28;20244;-73
2022/04/11 19:11:41;;;;;;;6.80;5.60;;;;;;;13.62;34.61;97868.63;8352888;28;20223;-73
2022/04/11 19:15:44;;;;;;;7.07;5.57;;;;;;;13.69;34.45;97857.75;8346261;28;20232;-73
2022/04/11 19:19:47;;;;;;;7.00;6.27;;;;;;;13.68;34.43;97870.84;8346128;28;20231;-73
2022/04/11 19:23:53;;;;;;;7.17;5.90;;;;;;;13.63;34.34;97872.88;8345162;28;20239;-73
2022/04/11 19:27:58;;;;;;;9.73;6.70;;;;;;;13.47;34.41;97870.34;8344065;28;20232;-73
2022/04/11 19:32:02;;;;;;;8.20;6.73;;;;;;;13.54;34.60;97876.03;8345648;28;20251;-72